LOWL/LNZ METAR and TAF weather

Enter ICAO airport designator
Station Type Date Time Source
LOWL METAR 2019/05/21 21:20 UTC NOAA

LOWL 212120Z AUTO 25010KT 9999 FEW017 BKN018 13/10 Q1011


Station Type Date Time Source
LOWL Decoded METAR 2019/05/21 21:20 UTC NOAA

Linz / Hoersching-Flughafen, Austria (LOWL) 48-14N 014-11E 313M
May 21, 2019 - 05:20 PM EDT / 2019.05.21 2120 UTC
Wind: from the WSW (250 degrees) at 12 MPH (10 KT):0
Visibility: greater than 7 mile(s):0
Sky conditions: mostly cloudy
Temperature: 55 F (13 C)
Dew Point: 50 F (10 C)
Relative Humidity: 81%
Pressure (altimeter): 29.85 in. Hg (1011 hPa)
ob: LOWL 212120Z AUTO 25010KT 9999 FEW017 BKN018 13/10 Q1011
cycle: 21

Station Type Date Time Source
LOWL TAF 2019/05/21 18:21 UTC NOAA

TAF LOWL 211715Z 2118/2218 26013KT 9999 SCT015 BKN030 TX14/2213Z TN11/2122Z
BECMG 2118/2121 8000 -RA BKN012 PROB40
TEMPO 2121/2210 3000 RA BKN007
BECMG 2206/2210 27015G25KT 9999 NSW SCT010 BKN020
BECMG 2214/2216 26010KT

Example: see airport list